West Navigator — 3ERR2 — position and weather

sailwx.info

Track history (hours):
 
Tides and Currents Weather Stations Pressure Air Temp Water Temp Dewpoint Dewpoint Depression Visibility Wind Speed Wind Dir Waves Ship Positions

West Navigator

Last reported at 2014-Oct-26 03:00 UTC. Time now 2014-Oct-26 05:11 UTC.
Position N 67°18' E 007°24'.

Length 253 m; draft 15 m.

MMSI: 370144000.

Wind from 180 at 24 knots

Waves 4.5 meters (15 feet), 8 second period

Barometer 983.1 mb
Air temperature 8.4 ° C
Dewpoint 6.1 ° C

Date/timePositionNaut miles runAvg speedWind from/ knotsBaromVisibWave heightAir tempDewpointWater temp
2014-Oct-26 03:00N 67°18' E 007°24'0 0.0 180 / 24983.1 4.5 8.4 6.1
2014-Oct-26 00:00N 67°18' E 007°24'0 0.0 150 / 24985.5 4.5 9.5 8.0
2014-Oct-25 21:00N 67°18' E 007°24'0 0.0 190 / 35987.9 4.0 8.4 7.7
2014-Oct-25 18:00N 67°18' E 007°24'0 0.0 170 / 18990.7 3.5 9.7 7.8
2014-Oct-25 12:00N 67°18' E 007°24'0 0.0 170 / 15993.3 3.5 8.3 6.4
2014-Oct-25 09:00N 67°18' E 007°24'0 0.0 200 / 23993.8 3.5 9.5 7.8
2014-Oct-25 06:00N 67°18' E 007°24'0 0.0 170 / 18994.3 3.5 9.4 7.4
2014-Oct-25 00:00N 67°18' E 007°24'0 0.0 180 / 19996.2 4.0 9.8 6.6
2014-Oct-24 21:00N 67°18' E 007°24'0 0.0 200 / 21996.6 4.0 8.7 6.6
2014-Oct-24 18:00N 67°18' E 007°24'0 0.0 200 / 23996.5 4.5 9.9 6.2
2014-Oct-24 15:00N 67°18' E 007°24'0 0.0 210 / 27995.5 4.5 9.6 6.2
2014-Oct-24 09:00N 67°18' E 007°24'0 0.0 220 / 27991.0 4.510.2 8.4
2014-Oct-24 06:00N 67°18' E 007°24'0 0.0 160 / 22991.4 4.0 9.1 8.9
2014-Oct-24 03:00N 67°18' E 007°24'0 0.0 160 / 21994.2 3.5 9.5 8.8
2014-Oct-24 00:00N 67°18' E 007°24'0 0.0 190 / 20996.3 3.5 9.8 8.6
2014-Oct-23 21:00N 67°18' E 007°24'0 0.0 200 / 25996.4 4.010.0 8.2
2014-Oct-23 18:10N 67°18' E 007°24'0 0.0 210 / 24995.8 4.5 9.7 7.8
2014-Oct-23 15:00N 67°18' E 007°24'0 0.0 200 / 24994.3 5.0 9.8 8.5
2014-Oct-23 12:00N 67°18' E 007°24'0 0.0 180 / 18993.7 5.5 9.1 9.1
2014-Oct-23 09:00N 67°18' E 007°24'0 0.0 170 / 34994.2 5.5 8.5 8.5
2014-Oct-23 06:00N 67°18' E 007°24'0 0.0 160 / 35996.3 4.5 7.9 6.2
2014-Oct-23 03:00N 67°18' E 007°24'0 0.0 140 / 23999.1 3.0 8.0 6.5
2014-Oct-23 00:00N 67°18' E 007°24'0 0.0 170 / 171002.6 3.0 7.7 5.8
2014-Oct-22 21:00N 67°18' E 007°24'0 0.0 150 / 171004.7 3.0 6.8 3.6
2014-Oct-22 18:00N 67°18' E 007°24'0 0.0 180 / 121005.4 4.0 7.0 1.3
2014-Oct-22 15:00N 67°18' E 007°24'0 0.0 260 / 251003.7 4.0 5.7 3.0
2014-Oct-22 12:00N 67°18' E 007°24'0 0.0 290 / 33996.9 5.5 7.0 6.4
2014-Oct-22 09:00N 67°18' E 007°24'0 0.0 160 / 32998.4 5.0 7.7 6.6
2014-Oct-22 06:00N 67°18' E 007°24'0 0.0 160 / 36998.8 5.5 7.2 5.3
2014-Oct-22 03:00N 67°18' E 007°24'0 0.0 150 / 35999.3 5.5 7.5 4.8
2014-Oct-22 00:00N 67°18' E 007°24'0 0.0 160 / 34998.9 5.5 7.9 3.9
2014-Oct-21 21:00N 67°18' E 007°24'0 0.0 150 / 31998.0 5.0 8.3 4.5
2014-Oct-21 18:00N 67°18' E 007°24'0 0.0 150 / 31997.2 5.0 8.4 4.3
2014-Oct-21 15:00N 67°18' E 007°24'0 0.0 150 / 26996.4 4.0 8.6 4.7
2014-Oct-21 12:00N 67°18' E 007°24'0 0.0 140 / 23996.5 3.5 8.5 5.8
2014-Oct-21 09:00N 67°18' E 007°24'0 0.0 150 / 22995.7 3.0 8.9 7.7
2014-Oct-21 06:00N 67°18' E 007°24'0 0.0 170 / 21994.7 2.5 9.6 7.7
2014-Oct-21 03:00N 67°18' E 007°24'0 0.0 190 / 18994.2 2.5 9.0 7.0
2014-Oct-21 00:00N 67°18' E 007°24'0 0.0 210 / 16993.8 2.5 9.5 7.3
2014-Oct-20 18:00N 67°18' E 007°24'0 0.0 150 / 19993.3 3.0 8.2 7.6
2014-Oct-20 12:00N 67°18' E 007°24'0 0.0 150 / 20993.3 2.5 8.8 5.6
2014-Oct-20 09:00N 67°18' E 007°24'0 0.0 190 / 17993.1 2.5 9.1 7.0
2014-Oct-20 06:00N 67°18' E 007°24'0 0.0 140 / 17992.2 2.5 8.1 7.4
2014-Oct-20 03:00N 67°18' E 007°24'0 0.0 150 / 17992.1 2.5 7.9 7.7
2014-Oct-20 00:00N 67°18' E 007°24'0 0.0 150 / 18991.9 2.5 8.4 8.4
2014-Oct-19 21:00N 67°18' E 007°24'0 0.0 140 / 19991.6 2.5 8.9 8.9
2014-Oct-19 18:00N 67°18' E 007°24'0 0.0 120 / 20991.7 2.0 8.4 8.4
2014-Oct-19 15:00N 67°18' E 007°24'0 0.0 130 / 21992.9 2.5 7.9 7.8
2014-Oct-19 09:00N 67°18' E 007°24'0 0.0 130 / 19995.0 2.5 7.9 6.3
2014-Oct-19 03:00N 67°18' E 007°24'0 0.0 100 / 23998.5 3.0 7.9 3.3
2014-Oct-19 00:00N 67°18' E 007°24'0 0.0 090 / 241000.8 2.5 7.8 3.8
2014-Oct-18 18:00N 67°18' E 007°24'0 0.0 100 / 211007.4 1.5 7.0 3.0
2014-Oct-18 15:00N 67°18' E 007°24'0 0.0 090 / 161011.3 1.0 7.2 1.9
2014-Oct-18 12:00N 67°18' E 007°24'0 0.0 100 / 81014.1 1.0 6.9 1.6
2014-Oct-18 09:00N 67°18' E 007°24'0 0.0 060 / 71015.1 1.0 7.2 0.8
2014-Oct-18 06:00N 67°18' E 007°24'0 0.0 360 / 41015.4 1.5 7.1 1.6
2014-Oct-18 03:00N 67°18' E 007°24'0 0.0 010 / 61015.7 1.0 6.8 1.3
2014-Oct-18 00:00N 67°18' E 007°24'0 0.0 020 / 71015.8 1.0 6.8 3.0
2014-Oct-17 21:00N 67°18' E 007°24'0 0.0 340 / 61015.7 1.0 6.8 2.7
2014-Oct-17 18:00N 67°18' E 007°24'0 0.0 330 / 61015.0 1.0 7.0 0.5
2014-Oct-17 15:00N 67°18' E 007°24'0 0.0 310 / 41014.8 1.0 7.0 1.8
2014-Oct-17 09:00N 67°18' E 007°24'0 0.0 290 / 21014.7 1.0 7.5 1.1
2014-Oct-17 06:00N 67°18' E 007°24'0 0.0 180 / 41014.0 1.0 7.2 1.2
2014-Oct-17 03:00N 67°18' E 007°24'0 0.0 020 / 31014.3 1.0 6.3 2.0
2014-Oct-17 00:00N 67°18' E 007°24'0 0.0 120 / 31014.8 1.0 6.9 1.6
2014-Oct-16 18:00N 67°18' E 007°24'0 0.0 030 / 41015.1 1.0 6.5 1.7
2014-Oct-16 12:00N 67°18' E 007°24'0 0.0 040 / 41014.7 0.5 6.7 1.1
2014-Oct-16 09:00N 67°18' E 007°24'0 0.0 050 / 41014.9 0.5 6.8 1.0
2014-Oct-16 06:00N 67°18' E 007°24'0 0.0 030 / 41014.3 0.5 6.2 1.0
2014-Oct-16 03:00N 67°18' E 007°24'   360 / 41014.8 0.5 6.3 1.2
Track history (hours):
 
Tides and Currents Weather Stations Pressure Air Temp Water Temp Dewpoint Dewpoint Depression Visibility Wind Speed Wind Dir Waves Ship Positions

West Navigator

Last reported at 2014-Oct-26 03:00 UTC. Time now 2014-Oct-26 05:11 UTC.
Position N 67°18' E 007°24'.

Length 253 m; draft 15 m.

MMSI: 370144000.

Wind from 180 at 24 knots

Waves 4.5 meters (15 feet), 8 second period

Barometer 983.1 mb
Air temperature 8.4 ° C
Dewpoint 6.1 ° C

Date/timePositionNaut miles runAvg speedWind from/ knotsBaromVisibWave heightAir tempDewpointWater temp
2014-Oct-26 03:00N 67°18' E 007°24'0 0.0 180 / 24983.1 4.5 8.4 6.1
2014-Oct-26 00:00N 67°18' E 007°24'0 0.0 150 / 24985.5 4.5 9.5 8.0
2014-Oct-25 21:00N 67°18' E 007°24'0 0.0 190 / 35987.9 4.0 8.4 7.7
2014-Oct-25 18:00N 67°18' E 007°24'0 0.0 170 / 18990.7 3.5 9.7 7.8
2014-Oct-25 12:00N 67°18' E 007°24'0 0.0 170 / 15993.3 3.5 8.3 6.4
2014-Oct-25 09:00N 67°18' E 007°24'0 0.0 200 / 23993.8 3.5 9.5 7.8
2014-Oct-25 06:00N 67°18' E 007°24'0 0.0 170 / 18994.3 3.5 9.4 7.4
2014-Oct-25 00:00N 67°18' E 007°24'0 0.0 180 / 19996.2 4.0 9.8 6.6
2014-Oct-24 21:00N 67°18' E 007°24'0 0.0 200 / 21996.6 4.0 8.7 6.6
2014-Oct-24 18:00N 67°18' E 007°24'0 0.0 200 / 23996.5 4.5 9.9 6.2
2014-Oct-24 15:00N 67°18' E 007°24'0 0.0 210 / 27995.5 4.5 9.6 6.2
2014-Oct-24 09:00N 67°18' E 007°24'0 0.0 220 / 27991.0 4.510.2 8.4
2014-Oct-24 06:00N 67°18' E 007°24'0 0.0 160 / 22991.4 4.0 9.1 8.9
2014-Oct-24 03:00N 67°18' E 007°24'0 0.0 160 / 21994.2 3.5 9.5 8.8
2014-Oct-24 00:00N 67°18' E 007°24'0 0.0 190 / 20996.3 3.5 9.8 8.6
2014-Oct-23 21:00N 67°18' E 007°24'0 0.0 200 / 25996.4 4.010.0 8.2
2014-Oct-23 18:10N 67°18' E 007°24'0 0.0 210 / 24995.8 4.5 9.7 7.8
2014-Oct-23 15:00N 67°18' E 007°24'0 0.0 200 / 24994.3 5.0 9.8 8.5
2014-Oct-23 12:00N 67°18' E 007°24'0 0.0 180 / 18993.7 5.5 9.1 9.1
2014-Oct-23 09:00N 67°18' E 007°24'0 0.0 170 / 34994.2 5.5 8.5 8.5
2014-Oct-23 06:00N 67°18' E 007°24'0 0.0 160 / 35996.3 4.5 7.9 6.2
2014-Oct-23 03:00N 67°18' E 007°24'0 0.0 140 / 23999.1 3.0 8.0 6.5
2014-Oct-23 00:00N 67°18' E 007°24'0 0.0 170 / 171002.6 3.0 7.7 5.8
2014-Oct-22 21:00N 67°18' E 007°24'0 0.0 150 / 171004.7 3.0 6.8 3.6
2014-Oct-22 18:00N 67°18' E 007°24'0 0.0 180 / 121005.4 4.0 7.0 1.3
2014-Oct-22 15:00N 67°18' E 007°24'0 0.0 260 / 251003.7 4.0 5.7 3.0
2014-Oct-22 12:00N 67°18' E 007°24'0 0.0 290 / 33996.9 5.5 7.0 6.4
2014-Oct-22 09:00N 67°18' E 007°24'0 0.0 160 / 32998.4 5.0 7.7 6.6
2014-Oct-22 06:00N 67°18' E 007°24'0 0.0 160 / 36998.8 5.5 7.2 5.3
2014-Oct-22 03:00N 67°18' E 007°24'0 0.0 150 / 35999.3 5.5 7.5 4.8
2014-Oct-22 00:00N 67°18' E 007°24'0 0.0 160 / 34998.9 5.5 7.9 3.9
2014-Oct-21 21:00N 67°18' E 007°24'0 0.0 150 / 31998.0 5.0 8.3 4.5
2014-Oct-21 18:00N 67°18' E 007°24'0 0.0 150 / 31997.2 5.0 8.4 4.3
2014-Oct-21 15:00N 67°18' E 007°24'0 0.0 150 / 26996.4 4.0 8.6 4.7
2014-Oct-21 12:00N 67°18' E 007°24'0 0.0 140 / 23996.5 3.5 8.5 5.8
2014-Oct-21 09:00N 67°18' E 007°24'0 0.0 150 / 22995.7 3.0 8.9 7.7
2014-Oct-21 06:00N 67°18' E 007°24'0 0.0 170 / 21994.7 2.5 9.6 7.7
2014-Oct-21 03:00N 67°18' E 007°24'0 0.0 190 / 18994.2 2.5 9.0 7.0
2014-Oct-21 00:00N 67°18' E 007°24'0 0.0 210 / 16993.8 2.5 9.5 7.3
2014-Oct-20 18:00N 67°18' E 007°24'0 0.0 150 / 19993.3 3.0 8.2 7.6
2014-Oct-20 12:00N 67°18' E 007°24'0 0.0 150 / 20993.3 2.5 8.8 5.6
2014-Oct-20 09:00N 67°18' E 007°24'0 0.0 190 / 17993.1 2.5 9.1 7.0
2014-Oct-20 06:00N 67°18' E 007°24'0 0.0 140 / 17992.2 2.5 8.1 7.4
2014-Oct-20 03:00N 67°18' E 007°24'0 0.0 150 / 17992.1 2.5 7.9 7.7
2014-Oct-20 00:00N 67°18' E 007°24'0 0.0 150 / 18991.9 2.5 8.4 8.4
2014-Oct-19 21:00N 67°18' E 007°24'0 0.0 140 / 19991.6 2.5 8.9 8.9
2014-Oct-19 18:00N 67°18' E 007°24'0 0.0 120 / 20991.7 2.0 8.4 8.4
2014-Oct-19 15:00N 67°18' E 007°24'0 0.0 130 / 21992.9 2.5 7.9 7.8
2014-Oct-19 09:00N 67°18' E 007°24'0 0.0 130 / 19995.0 2.5 7.9 6.3
2014-Oct-19 03:00N 67°18' E 007°24'0 0.0 100 / 23998.5 3.0 7.9 3.3
2014-Oct-19 00:00N 67°18' E 007°24'0 0.0 090 / 241000.8 2.5 7.8 3.8
2014-Oct-18 18:00N 67°18' E 007°24'0 0.0 100 / 211007.4 1.5 7.0 3.0
2014-Oct-18 15:00N 67°18' E 007°24'0 0.0 090 / 161011.3 1.0 7.2 1.9
2014-Oct-18 12:00N 67°18' E 007°24'0 0.0 100 / 81014.1 1.0 6.9 1.6
2014-Oct-18 09:00N 67°18' E 007°24'0 0.0 060 / 71015.1 1.0 7.2 0.8
2014-Oct-18 06:00N 67°18' E 007°24'0 0.0 360 / 41015.4 1.5 7.1 1.6
2014-Oct-18 03:00N 67°18' E 007°24'0 0.0 010 / 61015.7 1.0 6.8 1.3
2014-Oct-18 00:00N 67°18' E 007°24'0 0.0 020 / 71015.8 1.0 6.8 3.0
2014-Oct-17 21:00N 67°18' E 007°24'0 0.0 340 / 61015.7 1.0 6.8 2.7
2014-Oct-17 18:00N 67°18' E 007°24'0 0.0 330 / 61015.0 1.0 7.0 0.5
2014-Oct-17 15:00N 67°18' E 007°24'0 0.0 310 / 41014.8 1.0 7.0 1.8
2014-Oct-17 09:00N 67°18' E 007°24'0 0.0 290 / 21014.7 1.0 7.5 1.1
2014-Oct-17 06:00N 67°18' E 007°24'0 0.0 180 / 41014.0 1.0 7.2 1.2
2014-Oct-17 03:00N 67°18' E 007°24'0 0.0 020 / 31014.3 1.0 6.3 2.0
2014-Oct-17 00:00N 67°18' E 007°24'0 0.0 120 / 31014.8 1.0 6.9 1.6
2014-Oct-16 18:00N 67°18' E 007°24'0 0.0 030 / 41015.1 1.0 6.5 1.7
2014-Oct-16 12:00N 67°18' E 007°24'0 0.0 040 / 41014.7 0.5 6.7 1.1
2014-Oct-16 09:00N 67°18' E 007°24'0 0.0 050 / 41014.9 0.5 6.8 1.0
2014-Oct-16 06:00N 67°18' E 007°24'0 0.0 030 / 41014.3 0.5 6.2 1.0
2014-Oct-16 03:00N 67°18' E 007°24'   360 / 41014.8 0.5 6.3 1.2

Dump ship's entire track history